SWR7PE LSZH-EDDM
Flight info
| Callsign | SWR7PE |
|---|---|
| Flight time | 0h 35m |
| Altitude | 25000 |
| Route | DEGES3W DEGES Z6 NUNRI T103 BETOS BETOS1B |
| Aircraft | A320/M-SDE3FGHIRWY/LB1 |
Departure
| Time | 2026-05-07 16:17 |
|---|---|
| Airport | Zürich Airport (LSZH) |
Arrival
| Time | 2026-05-07 16:53 |
|---|---|
| Airport | Munich Airport (EDDM) |
| Time | Latitude | Longitude | Altitude | Speed | Heading |
|---|---|---|---|---|---|
| 2026-05-07 15:52 | 47.44552 | 8.56071 | 1401 ft | 0 kts | 245° |
| 2026-05-07 16:15 | 47.44551 | 8.56067 | 1395 ft | 3 kts | 245° |
| 2026-05-07 16:16 | 47.44530 | 8.55988 | 1403 ft | 13 kts | 266° |
| 2026-05-07 16:16 | 47.44615 | 8.55902 | 1402 ft | 17 kts | 319° |
| 2026-05-07 16:16 | 47.44587 | 8.55730 | 1400 ft | 19 kts | 243° |
| 2026-05-07 16:16 | 47.44630 | 8.55619 | 1395 ft | 17 kts | 334° |
| 2026-05-07 16:17 | 47.44850 | 8.55462 | 1395 ft | 65 kts | 335° |
| 2026-05-07 16:17 | 47.45472 | 8.55037 | 1397 ft | 130 kts | 335° |
| 2026-05-07 16:17 | 47.46408 | 8.54384 | 1726 ft | 153 kts | 334° |
| 2026-05-07 16:17 | 47.47376 | 8.53719 | 2521 ft | 153 kts | 334° |
| 2026-05-07 16:18 | 47.48386 | 8.53056 | 3130 ft | 168 kts | 334° |
| 2026-05-07 16:18 | 47.49525 | 8.52308 | 3544 ft | 191 kts | 335° |
| 2026-05-07 16:18 | 47.50820 | 8.51458 | 3968 ft | 214 kts | 335° |
| 2026-05-07 16:18 | 47.52207 | 8.50577 | 4804 ft | 220 kts | 341° |
| 2026-05-07 16:19 | 47.53741 | 8.50387 | 5663 ft | 227 kts | 9° |
| 2026-05-07 16:19 | 47.55198 | 8.51317 | 6502 ft | 234 kts | 38° |
| 2026-05-07 16:19 | 47.56212 | 8.53218 | 7300 ft | 241 kts | 67° |
| 2026-05-07 16:19 | 47.56477 | 8.55660 | 8103 ft | 245 kts | 98° |
| 2026-05-07 16:20 | 47.56145 | 8.58147 | 8944 ft | 249 kts | 100° |
| 2026-05-07 16:20 | 47.56148 | 8.60724 | 9765 ft | 254 kts | 82° |
| 2026-05-07 16:20 | 47.56419 | 8.63328 | 10577 ft | 258 kts | 82° |
| 2026-05-07 16:20 | 47.56694 | 8.65968 | 11366 ft | 262 kts | 82° |
| 2026-05-07 16:21 | 47.56972 | 8.68652 | 12159 ft | 266 kts | 82° |
| 2026-05-07 16:21 | 47.57443 | 8.71324 | 12911 ft | 274 kts | 71° |
| 2026-05-07 16:21 | 47.57829 | 8.74167 | 13373 ft | 287 kts | 98° |
| 2026-05-07 16:21 | 47.57161 | 8.76880 | 14175 ft | 281 kts | 132° |
| 2026-05-07 16:22 | 47.55725 | 8.78775 | 14703 ft | 289 kts | 147° |
| 2026-05-07 16:22 | 47.54041 | 8.80610 | 14943 ft | 313 kts | 147° |
| 2026-05-07 16:22 | 47.52218 | 8.82578 | 15155 ft | 336 kts | 146° |
| 2026-05-07 16:22 | 47.50275 | 8.84671 | 15511 ft | 352 kts | 146° |
| 2026-05-07 16:23 | 47.48319 | 8.86918 | 16136 ft | 360 kts | 139° |
| 2026-05-07 16:23 | 47.46646 | 8.89712 | 16807 ft | 367 kts | 127° |
| 2026-05-07 16:23 | 47.45389 | 8.93027 | 17522 ft | 373 kts | 114° |
| 2026-05-07 16:23 | 47.44622 | 8.96717 | 18218 ft | 379 kts | 102° |
| 2026-05-07 16:24 | 47.44086 | 9.00552 | 18850 ft | 383 kts | 102° |
| 2026-05-07 16:24 | 47.43539 | 9.04417 | 19475 ft | 386 kts | 103° |
| 2026-05-07 16:24 | 47.42979 | 9.08314 | 20100 ft | 390 kts | 103° |
| 2026-05-07 16:24 | 47.42410 | 9.12246 | 20725 ft | 393 kts | 102° |
| 2026-05-07 16:25 | 47.42103 | 9.16272 | 21331 ft | 398 kts | 91° |
| 2026-05-07 16:25 | 47.42320 | 9.20355 | 21925 ft | 402 kts | 79° |
| 2026-05-07 16:25 | 47.43068 | 9.24344 | 22524 ft | 405 kts | 68° |
| 2026-05-07 16:25 | 47.44318 | 9.28081 | 23174 ft | 407 kts | 59° |
| 2026-05-07 16:26 | 47.45743 | 9.31715 | 23758 ft | 410 kts | 59° |
| 2026-05-07 16:26 | 47.47173 | 9.35385 | 24247 ft | 414 kts | 59° |
| 2026-05-07 16:26 | 47.48609 | 9.39092 | 24740 ft | 417 kts | 59° |
| 2026-05-07 16:26 | 47.49563 | 9.41562 | 24927 ft | 418 kts | 59° |
| 2026-05-07 16:27 | 47.51505 | 9.46597 | 25031 ft | 430 kts | 59° |
| 2026-05-07 16:27 | 47.53007 | 9.50491 | 25029 ft | 440 kts | 59° |
| 2026-05-07 16:27 | 47.54528 | 9.54444 | 25031 ft | 443 kts | 59° |
| 2026-05-07 16:27 | 47.56053 | 9.58413 | 25032 ft | 444 kts | 59° |
| 2026-05-07 16:28 | 47.57428 | 9.62505 | 25027 ft | 445 kts | 69° |
| 2026-05-07 16:28 | 47.58243 | 9.66919 | 25029 ft | 446 kts | 81° |
| 2026-05-07 16:28 | 47.58431 | 9.71501 | 25023 ft | 447 kts | 93° |
| 2026-05-07 16:28 | 47.58239 | 9.76098 | 25026 ft | 447 kts | 94° |
| 2026-05-07 16:29 | 47.58047 | 9.80697 | 25031 ft | 448 kts | 94° |
| 2026-05-07 16:29 | 47.57862 | 9.85298 | 25030 ft | 447 kts | 94° |
| 2026-05-07 16:29 | 47.57679 | 9.89896 | 25027 ft | 447 kts | 94° |
| 2026-05-07 16:29 | 47.57493 | 9.94494 | 25026 ft | 447 kts | 94° |
| 2026-05-07 16:30 | 47.57302 | 9.99094 | 25023 ft | 447 kts | 94° |
| 2026-05-07 16:30 | 47.57109 | 10.03686 | 25016 ft | 447 kts | 94° |
| 2026-05-07 16:30 | 47.56914 | 10.08278 | 25028 ft | 447 kts | 94° |
| 2026-05-07 16:30 | 47.56716 | 10.12868 | 25030 ft | 447 kts | 94° |
| 2026-05-07 16:31 | 47.56517 | 10.17457 | 25026 ft | 447 kts | 94° |
| 2026-05-07 16:31 | 47.56315 | 10.22047 | 25020 ft | 446 kts | 94° |
| 2026-05-07 16:31 | 47.56112 | 10.26629 | 25017 ft | 446 kts | 94° |
| 2026-05-07 16:31 | 47.55906 | 10.31213 | 25020 ft | 446 kts | 94° |
| 2026-05-07 16:32 | 47.55700 | 10.35790 | 25018 ft | 446 kts | 94° |
| 2026-05-07 16:32 | 47.55494 | 10.40371 | 25017 ft | 446 kts | 94° |
| 2026-05-07 16:32 | 47.55286 | 10.44952 | 25016 ft | 446 kts | 94° |
| 2026-05-07 16:32 | 47.55098 | 10.49526 | 25012 ft | 446 kts | 91° |
| 2026-05-07 16:33 | 47.55344 | 10.54093 | 25012 ft | 445 kts | 78° |
| 2026-05-07 16:33 | 47.56204 | 10.58474 | 25010 ft | 443 kts | 66° |
| 2026-05-07 16:33 | 47.57626 | 10.62507 | 25013 ft | 442 kts | 57° |
| 2026-05-07 16:33 | 47.59211 | 10.66405 | 25011 ft | 441 kts | 57° |
| 2026-05-07 16:34 | 47.60790 | 10.70308 | 25010 ft | 442 kts | 58° |
| 2026-05-07 16:34 | 47.62365 | 10.74217 | 25010 ft | 442 kts | 58° |
| 2026-05-07 16:34 | 47.63936 | 10.78133 | 25010 ft | 442 kts | 58° |
| 2026-05-07 16:34 | 47.65488 | 10.82022 | 24954 ft | 432 kts | 58° |
| 2026-05-07 16:35 | 47.66993 | 10.85796 | 24705 ft | 418 kts | 57° |
| 2026-05-07 16:35 | 47.68686 | 10.89202 | 24442 ft | 404 kts | 46° |
| 2026-05-07 16:35 | 47.70718 | 10.92015 | 24039 ft | 396 kts | 36° |
| 2026-05-07 16:35 | 47.72868 | 10.94550 | 23528 ft | 394 kts | 36° |
| 2026-05-07 16:36 | 47.74979 | 10.97041 | 22990 ft | 391 kts | 36° |
| 2026-05-07 16:36 | 47.77096 | 10.99546 | 22501 ft | 387 kts | 36° |
| 2026-05-07 16:36 | 47.79188 | 11.02033 | 22015 ft | 384 kts | 36° |
| 2026-05-07 16:36 | 47.81263 | 11.04506 | 21534 ft | 381 kts | 37° |
| 2026-05-07 16:37 | 47.83320 | 11.06966 | 21064 ft | 377 kts | 36° |
| 2026-05-07 16:37 | 47.85353 | 11.09398 | 20594 ft | 374 kts | 36° |
| 2026-05-07 16:37 | 47.87369 | 11.11809 | 20126 ft | 370 kts | 36° |
| 2026-05-07 16:37 | 47.89377 | 11.14198 | 19664 ft | 368 kts | 36° |
| 2026-05-07 16:38 | 47.91370 | 11.16564 | 19217 ft | 365 kts | 36° |
| 2026-05-07 16:38 | 47.93352 | 11.18918 | 18765 ft | 364 kts | 36° |
| 2026-05-07 16:38 | 47.95328 | 11.21266 | 18311 ft | 363 kts | 36° |
| 2026-05-07 16:38 | 47.97296 | 11.23610 | 17828 ft | 361 kts | 36° |
| 2026-05-07 16:39 | 47.99252 | 11.25945 | 17389 ft | 358 kts | 36° |
| 2026-05-07 16:39 | 48.01191 | 11.28263 | 16954 ft | 356 kts | 36° |
| 2026-05-07 16:39 | 48.03116 | 11.30572 | 16528 ft | 354 kts | 36° |
| 2026-05-07 16:39 | 48.05027 | 11.32864 | 16105 ft | 351 kts | 36° |
| 2026-05-07 16:40 | 48.06925 | 11.35142 | 15684 ft | 349 kts | 36° |
| 2026-05-07 16:40 | 48.08812 | 11.37402 | 15273 ft | 347 kts | 36° |
| 2026-05-07 16:40 | 48.10690 | 11.39653 | 14852 ft | 345 kts | 36° |
| 2026-05-07 16:40 | 48.12557 | 11.41894 | 14440 ft | 344 kts | 36° |
| 2026-05-07 16:41 | 48.14420 | 11.44132 | 14016 ft | 342 kts | 36° |
| 2026-05-07 16:41 | 48.16268 | 11.46363 | 13573 ft | 341 kts | 36° |
| 2026-05-07 16:41 | 48.18105 | 11.48587 | 13146 ft | 338 kts | 36° |
| 2026-05-07 16:41 | 48.19929 | 11.50795 | 12739 ft | 335 kts | 36° |
| 2026-05-07 16:42 | 48.21700 | 11.53043 | 12318 ft | 334 kts | 43° |
| 2026-05-07 16:42 | 48.23114 | 11.55806 | 11898 ft | 335 kts | 59° |
| 2026-05-07 16:42 | 48.23993 | 11.58987 | 11734 ft | 326 kts | 75° |
| 2026-05-07 16:42 | 48.24372 | 11.62280 | 11356 ft | 317 kts | 83° |
| 2026-05-07 16:43 | 48.24633 | 11.65551 | 10701 ft | 313 kts | 83° |
| 2026-05-07 16:43 | 48.24881 | 11.68766 | 10280 ft | 308 kts | 84° |
| 2026-05-07 16:43 | 48.25125 | 11.71963 | 9966 ft | 307 kts | 84° |
| 2026-05-07 16:43 | 48.25367 | 11.75138 | 9575 ft | 305 kts | 84° |
| 2026-05-07 16:44 | 48.25606 | 11.78288 | 9176 ft | 303 kts | 83° |
| 2026-05-07 16:44 | 48.25844 | 11.81421 | 8782 ft | 301 kts | 83° |
| 2026-05-07 16:44 | 48.26082 | 11.84526 | 8394 ft | 298 kts | 83° |
| 2026-05-07 16:44 | 48.26317 | 11.87605 | 8016 ft | 296 kts | 83° |
| 2026-05-07 16:45 | 48.26550 | 11.90665 | 7630 ft | 294 kts | 83° |
| 2026-05-07 16:45 | 48.26781 | 11.93697 | 7249 ft | 292 kts | 83° |
| 2026-05-07 16:45 | 48.27009 | 11.96712 | 6878 ft | 289 kts | 83° |
| 2026-05-07 16:45 | 48.27235 | 11.99700 | 6515 ft | 287 kts | 83° |
| 2026-05-07 16:46 | 48.27455 | 12.02665 | 6131 ft | 286 kts | 83° |
| 2026-05-07 16:46 | 48.27671 | 12.05607 | 5846 ft | 279 kts | 83° |
| 2026-05-07 16:46 | 48.27824 | 12.07507 | 5669 ft | 274 kts | 79° |
| 2026-05-07 16:46 | 48.28584 | 12.10017 | 5420 ft | 261 kts | 44° |
| 2026-05-07 16:47 | 48.30027 | 12.11534 | 5167 ft | 250 kts | 26° |
| 2026-05-07 16:47 | 48.31550 | 12.12721 | 4919 ft | 243 kts | 20° |
| 2026-05-07 16:47 | 48.33153 | 12.13122 | 4662 ft | 230 kts | 349° |
| 2026-05-07 16:47 | 48.34572 | 12.12221 | 4403 ft | 219 kts | 321° |
| 2026-05-07 16:48 | 48.35613 | 12.10603 | 4148 ft | 214 kts | 303° |
| 2026-05-07 16:48 | 48.36232 | 12.08634 | 4011 ft | 203 kts | 285° |
| 2026-05-07 16:48 | 48.36415 | 12.06626 | 4031 ft | 185 kts | 271° |
| 2026-05-07 16:48 | 48.36299 | 12.04729 | 4015 ft | 182 kts | 265° |
| 2026-05-07 16:49 | 48.36161 | 12.02841 | 4003 ft | 183 kts | 265° |
| 2026-05-07 16:49 | 48.36021 | 12.00942 | 4006 ft | 182 kts | 265° |
| 2026-05-07 16:49 | 48.35880 | 11.99049 | 3902 ft | 182 kts | 265° |
| 2026-05-07 16:49 | 48.35740 | 11.97169 | 3699 ft | 180 kts | 265° |
| 2026-05-07 16:50 | 48.35599 | 11.95298 | 3469 ft | 177 kts | 265° |
| 2026-05-07 16:50 | 48.35467 | 11.93543 | 3240 ft | 161 kts | 266° |
| 2026-05-07 16:50 | 48.35347 | 11.91947 | 3033 ft | 147 kts | 265° |
| 2026-05-07 16:50 | 48.35235 | 11.90466 | 2840 ft | 139 kts | 265° |
| 2026-05-07 16:51 | 48.35128 | 11.89033 | 2660 ft | 138 kts | 265° |
| 2026-05-07 16:51 | 48.35019 | 11.87585 | 2475 ft | 140 kts | 266° |
| 2026-05-07 16:51 | 48.34908 | 11.86133 | 2271 ft | 140 kts | 267° |
| 2026-05-07 16:51 | 48.34793 | 11.84660 | 2071 ft | 144 kts | 267° |
| 2026-05-07 16:52 | 48.34678 | 11.83156 | 1858 ft | 144 kts | 265° |
| 2026-05-07 16:52 | 48.34554 | 11.81645 | 1679 ft | 146 kts | 270° |
| 2026-05-07 16:52 | 48.34454 | 11.80148 | 1512 ft | 143 kts | 266° |
| 2026-05-07 16:52 | 48.34357 | 11.78850 | 1481 ft | 92 kts | 263° |
| 2026-05-07 16:53 | 48.34312 | 11.78242 | 1485 ft | 45 kts | 265° |
| 2026-05-07 16:53 | 48.34328 | 11.77958 | 1480 ft | 25 kts | 287° |
| 2026-05-07 16:53 | 48.34397 | 11.77716 | 1475 ft | 26 kts | 295° |
| 2026-05-07 16:53 | 48.34463 | 11.77504 | 1478 ft | 19 kts | 300° |
| 2026-05-07 16:54 | 48.34565 | 11.77434 | 1485 ft | 18 kts | 356° |
| 2026-05-07 16:54 | 48.34636 | 11.77556 | 1485 ft | 19 kts | 83° |
| 2026-05-07 16:54 | 48.34650 | 11.77719 | 1476 ft | 9 kts | 83° |
| 2026-05-07 16:54 | 48.34654 | 11.77767 | 1481 ft | 4 kts | 83° |
| 2026-05-07 16:55 | 48.34657 | 11.77800 | 1485 ft | 3 kts | 83° |
| 2026-05-07 16:55 | 48.34659 | 11.77821 | 1485 ft | 2 kts | 83° |
| 2026-05-07 16:55 | 48.34660 | 11.77835 | 1485 ft | 1 kts | 83° |
| 2026-05-07 16:55 | 48.34661 | 11.77843 | 1485 ft | 1 kts | 83° |
| 2026-05-07 16:56 | 48.34663 | 11.77872 | 1485 ft | 6 kts | 83° |
| 2026-05-07 16:56 | 48.34669 | 11.77968 | 1482 ft | 13 kts | 85° |
| 2026-05-07 16:56 | 48.34643 | 11.78360 | 1481 ft | 24 kts | 108° |
| 2026-05-07 16:57 | 48.34637 | 11.78600 | 1483 ft | 23 kts | 65° |
| 2026-05-07 16:57 | 48.34724 | 11.78796 | 1479 ft | 23 kts | 65° |
| 2026-05-07 16:57 | 48.34751 | 11.79042 | 1481 ft | 25 kts | 83° |
| 2026-05-07 16:57 | 48.34768 | 11.79295 | 1475 ft | 24 kts | 85° |
| 2026-05-07 16:58 | 48.34784 | 11.79501 | 1477 ft | 18 kts | 72° |
| 2026-05-07 16:58 | 48.34875 | 11.79555 | 1478 ft | 12 kts | 354° |
| 2026-05-07 16:58 | 48.34904 | 11.79550 | 1486 ft | 1 kts | 353° |
| 2026-05-07 16:58 | 48.34908 | 11.79549 | 1486 ft | 0 kts | 353° |
| 2026-05-07 17:00 | 48.34915 | 11.79548 | 1472 ft | 3 kts | 353° |
| 2026-05-07 17:00 | 48.34956 | 11.79540 | 1485 ft | 9 kts | 353° |
| 2026-05-07 17:01 | 48.35032 | 11.79526 | 1480 ft | 13 kts | 355° |
| 2026-05-07 17:01 | 48.35095 | 11.79622 | 1485 ft | 16 kts | 83° |
| 2026-05-07 17:01 | 48.35106 | 11.79800 | 1485 ft | 18 kts | 85° |
| 2026-05-07 17:01 | 48.35123 | 11.79999 | 1480 ft | 20 kts | 84° |
| 2026-05-07 17:02 | 48.35141 | 11.80204 | 1486 ft | 12 kts | 68° |
| 2026-05-07 17:02 | 48.35223 | 11.80216 | 1474 ft | 13 kts | 354° |
| 2026-05-07 17:02 | 48.35322 | 11.80199 | 1481 ft | 15 kts | 353° |
| 2026-05-07 17:02 | 48.35424 | 11.80173 | 1479 ft | 14 kts | 347° |
| 2026-05-07 17:03 | 48.35470 | 11.80074 | 1485 ft | 9 kts | 272° |
| 2026-05-07 17:03 | 48.35466 | 11.80025 | 1485 ft | 2 kts | 263° |
| 2026-05-07 17:03 | 48.35465 | 11.80014 | 1485 ft | 0 kts | 263° |